sensor_id;sensor_type;location;lat;lon;timestamp;P1;durP1;ratioP1;P2;durP2;ratioP2
5813;SDS011;2933;52.302;8.134;2023-02-02T00:01:08;19.30;;;2.50;;
5813;SDS011;2933;52.302;8.134;2023-02-02T00:06:09;13.53;;;2.67;;
5813;SDS011;2933;52.302;8.134;2023-02-02T00:11:11;19.80;;;2.27;;
5813;SDS011;2933;52.302;8.134;2023-02-02T00:16:21;32.63;;;2.80;;
5813;SDS011;2933;52.302;8.134;2023-02-02T00:21:35;17.43;;;2.90;;
5813;SDS011;2933;52.302;8.134;2023-02-02T00:26:38;18.83;;;2.50;;
5813;SDS011;2933;52.302;8.134;2023-02-02T00:31:42;17.17;;;2.43;;
5813;SDS011;2933;52.302;8.134;2023-02-02T00:36:44;12.83;;;2.03;;
5813;SDS011;2933;52.302;8.134;2023-02-02T00:41:46;12.97;;;1.80;;
5813;SDS011;2933;52.302;8.134;2023-02-02T00:46:49;27.80;;;2.50;;
5813;SDS011;2933;52.302;8.134;2023-02-02T00:51:51;18.43;;;2.40;;
5813;SDS011;2933;52.302;8.134;2023-02-02T00:56:53;17.23;;;2.97;;
5813;SDS011;2933;52.302;8.134;2023-02-02T01:01:56;11.27;;;1.63;;
5813;SDS011;2933;52.302;8.134;2023-02-02T01:06:57;18.67;;;2.57;;
5813;SDS011;2933;52.302;8.134;2023-02-02T01:11:59;14.63;;;1.70;;
5813;SDS011;2933;52.302;8.134;2023-02-02T01:17:02;22.20;;;2.70;;
5813;SDS011;2933;52.302;8.134;2023-02-02T01:22:04;10.53;;;2.53;;
5813;SDS011;2933;52.302;8.134;2023-02-02T01:27:05;12.47;;;2.30;;
5813;SDS011;2933;52.302;8.134;2023-02-02T01:32:09;12.70;;;1.63;;
5813;SDS011;2933;52.302;8.134;2023-02-02T01:37:11;12.60;;;1.70;;
5813;SDS011;2933;52.302;8.134;2023-02-02T01:42:13;20.00;;;2.57;;
5813;SDS011;2933;52.302;8.134;2023-02-02T01:47:24;14.27;;;2.47;;
5813;SDS011;2933;52.302;8.134;2023-02-02T01:52:27;10.20;;;1.63;;
5813;SDS011;2933;52.302;8.134;2023-02-02T01:57:33;10.63;;;1.67;;
5813;SDS011;2933;52.302;8.134;2023-02-02T02:02:43;18.63;;;2.70;;
5813;SDS011;2933;52.302;8.134;2023-02-02T02:07:46;11.70;;;2.00;;
5813;SDS011;2933;52.302;8.134;2023-02-02T02:12:49;7.17;;;1.97;;
5813;SDS011;2933;52.302;8.134;2023-02-02T02:17:56;13.77;;;2.13;;
5813;SDS011;2933;52.302;8.134;2023-02-02T02:23:23;14.27;;;2.00;;
5813;SDS011;2933;52.302;8.134;2023-02-02T02:34:44;5.80;;;1.83;;
5813;SDS011;2933;52.302;8.134;2023-02-02T02:39:53;8.97;;;1.67;;
5813;SDS011;2933;52.302;8.134;2023-02-02T02:44:59;10.03;;;1.87;;
5813;SDS011;2933;52.302;8.134;2023-02-02T02:50:04;15.87;;;1.70;;
5813;SDS011;2933;52.302;8.134;2023-02-02T02:55:06;11.37;;;1.80;;
5813;SDS011;2933;52.302;8.134;2023-02-02T03:00:17;7.57;;;1.53;;
5813;SDS011;2933;52.302;8.134;2023-02-02T03:05:38;19.80;;;2.20;;
5813;SDS011;2933;52.302;8.134;2023-02-02T03:10:47;7.23;;;1.37;;
5813;SDS011;2933;52.302;8.134;2023-02-02T03:15:49;5.90;;;1.17;;
5813;SDS011;2933;52.302;8.134;2023-02-02T03:20:52;7.53;;;1.60;;
5813;SDS011;2933;52.302;8.134;2023-02-02T03:25:54;18.77;;;2.43;;
5813;SDS011;2933;52.302;8.134;2023-02-02T03:30:56;18.63;;;1.77;;
5813;SDS011;2933;52.302;8.134;2023-02-02T03:36:01;16.03;;;2.50;;
5813;SDS011;2933;52.302;8.134;2023-02-02T03:41:03;5.67;;;2.03;;
5813;SDS011;2933;52.302;8.134;2023-02-02T03:46:05;9.00;;;2.13;;
5813;SDS011;2933;52.302;8.134;2023-02-02T03:51:08;12.73;;;2.40;;
5813;SDS011;2933;52.302;8.134;2023-02-02T03:56:11;5.47;;;1.80;;
5813;SDS011;2933;52.302;8.134;2023-02-02T04:01:13;29.43;;;2.60;;
5813;SDS011;2933;52.302;8.134;2023-02-02T04:06:16;18.47;;;2.10;;
5813;SDS011;2933;52.302;8.134;2023-02-02T04:11:19;15.00;;;2.50;;
5813;SDS011;2933;52.302;8.134;2023-02-02T04:16:20;15.30;;;3.30;;
5813;SDS011;2933;52.302;8.134;2023-02-02T04:21:23;18.37;;;2.13;;
5813;SDS011;2933;52.302;8.134;2023-02-02T04:26:25;11.33;;;2.87;;
5813;SDS011;2933;52.302;8.134;2023-02-02T04:31:27;16.43;;;2.60;;
5813;SDS011;2933;52.302;8.134;2023-02-02T04:36:30;5.73;;;2.43;;
5813;SDS011;2933;52.302;8.134;2023-02-02T04:41:32;16.53;;;2.83;;
5813;SDS011;2933;52.302;8.134;2023-02-02T04:46:33;17.83;;;3.00;;
5813;SDS011;2933;52.302;8.134;2023-02-02T04:51:36;8.63;;;2.43;;
5813;SDS011;2933;52.302;8.134;2023-02-02T04:56:38;4.67;;;1.70;;
5813;SDS011;2933;52.302;8.134;2023-02-02T05:01:40;8.23;;;1.33;;
5813;SDS011;2933;52.302;8.134;2023-02-02T05:06:42;12.33;;;1.53;;
5813;SDS011;2933;52.302;8.134;2023-02-02T05:11:44;5.70;;;1.60;;
5813;SDS011;2933;52.302;8.134;2023-02-02T05:16:45;5.70;;;1.20;;
5813;SDS011;2933;52.302;8.134;2023-02-02T05:21:50;5.80;;;1.40;;
5813;SDS011;2933;52.302;8.134;2023-02-02T05:26:53;9.97;;;1.50;;
5813;SDS011;2933;52.302;8.134;2023-02-02T05:31:59;9.67;;;1.47;;
5813;SDS011;2933;52.302;8.134;2023-02-02T05:37:02;2.37;;;1.27;;
5813;SDS011;2933;52.302;8.134;2023-02-02T05:42:03;13.50;;;1.47;;
5813;SDS011;2933;52.302;8.134;2023-02-02T05:47:05;3.00;;;1.13;;
5813;SDS011;2933;52.302;8.134;2023-02-02T05:52:08;3.87;;;0.80;;
5813;SDS011;2933;52.302;8.134;2023-02-02T05:57:16;4.30;;;1.13;;
5813;SDS011;2933;52.302;8.134;2023-02-02T06:02:18;1.67;;;0.70;;
5813;SDS011;2933;52.302;8.134;2023-02-02T06:07:21;1.23;;;1.13;;
5813;SDS011;2933;52.302;8.134;2023-02-02T06:12:22;4.00;;;1.00;;
5813;SDS011;2933;52.302;8.134;2023-02-02T06:17:24;2.70;;;0.80;;
5813;SDS011;2933;52.302;8.134;2023-02-02T06:22:27;2.90;;;0.83;;
5813;SDS011;2933;52.302;8.134;2023-02-02T06:27:29;2.97;;;1.17;;
5813;SDS011;2933;52.302;8.134;2023-02-02T06:32:31;2.60;;;0.90;;
5813;SDS011;2933;52.302;8.134;2023-02-02T06:37:34;4.93;;;0.97;;
5813;SDS011;2933;52.302;8.134;2023-02-02T06:42:38;4.43;;;1.10;;
5813;SDS011;2933;52.302;8.134;2023-02-02T06:47:39;6.63;;;1.33;;
5813;SDS011;2933;52.302;8.134;2023-02-02T06:52:47;3.30;;;0.83;;
5813;SDS011;2933;52.302;8.134;2023-02-02T06:57:53;8.53;;;1.33;;
5813;SDS011;2933;52.302;8.134;2023-02-02T07:02:56;3.30;;;1.07;;
5813;SDS011;2933;52.302;8.134;2023-02-02T07:07:59;2.67;;;1.07;;
5813;SDS011;2933;52.302;8.134;2023-02-02T07:13:01;4.40;;;1.40;;
5813;SDS011;2933;52.302;8.134;2023-02-02T07:18:02;12.00;;;1.23;;
5813;SDS011;2933;52.302;8.134;2023-02-02T07:23:05;6.63;;;1.00;;
5813;SDS011;2933;52.302;8.134;2023-02-02T07:28:07;15.13;;;1.60;;
5813;SDS011;2933;52.302;8.134;2023-02-02T07:33:08;9.50;;;1.13;;
5813;SDS011;2933;52.302;8.134;2023-02-02T07:38:11;3.97;;;1.00;;
5813;SDS011;2933;52.302;8.134;2023-02-02T07:43:13;4.30;;;0.70;;
5813;SDS011;2933;52.302;8.134;2023-02-02T07:48:14;2.57;;;1.07;;
5813;SDS011;2933;52.302;8.134;2023-02-02T07:53:17;7.33;;;0.97;;
5813;SDS011;2933;52.302;8.134;2023-02-02T07:58:20;5.67;;;1.37;;
5813;SDS011;2933;52.302;8.134;2023-02-02T08:03:22;3.70;;;0.90;;
5813;SDS011;2933;52.302;8.134;2023-02-02T08:08:25;6.50;;;1.30;;
5813;SDS011;2933;52.302;8.134;2023-02-02T08:13:27;1.00;;;0.90;;
5813;SDS011;2933;52.302;8.134;2023-02-02T08:18:28;6.03;;;1.33;;
5813;SDS011;2933;52.302;8.134;2023-02-02T08:23:31;16.57;;;1.30;;
5813;SDS011;2933;52.302;8.134;2023-02-02T08:28:33;5.60;;;1.63;;
5813;SDS011;2933;52.302;8.134;2023-02-02T08:33:35;7.10;;;1.73;;
5813;SDS011;2933;52.302;8.134;2023-02-02T08:38:38;4.33;;;1.30;;
5813;SDS011;2933;52.302;8.134;2023-02-02T08:43:40;3.23;;;1.40;;
5813;SDS011;2933;52.302;8.134;2023-02-02T08:48:41;6.10;;;1.43;;
5813;SDS011;2933;52.302;8.134;2023-02-02T08:53:44;6.43;;;1.53;;
5813;SDS011;2933;52.302;8.134;2023-02-02T08:58:47;4.03;;;1.10;;
5813;SDS011;2933;52.302;8.134;2023-02-02T09:03:52;4.93;;;1.20;;
5813;SDS011;2933;52.302;8.134;2023-02-02T09:08:55;3.43;;;1.50;;
5813;SDS011;2933;52.302;8.134;2023-02-02T09:13:57;7.00;;;1.20;;
5813;SDS011;2933;52.302;8.134;2023-02-02T09:19:00;5.30;;;1.33;;
5813;SDS011;2933;52.302;8.134;2023-02-02T09:24:06;2.60;;;1.10;;
5813;SDS011;2933;52.302;8.134;2023-02-02T09:29:10;2.83;;;1.17;;
5813;SDS011;2933;52.302;8.134;2023-02-02T09:34:14;3.43;;;0.90;;
5813;SDS011;2933;52.302;8.134;2023-02-02T09:39:17;5.17;;;1.60;;
5813;SDS011;2933;52.302;8.134;2023-02-02T09:44:21;8.73;;;1.70;;
5813;SDS011;2933;52.302;8.134;2023-02-02T09:49:36;4.03;;;1.27;;
5813;SDS011;2933;52.302;8.134;2023-02-02T09:54:43;3.00;;;1.20;;
5813;SDS011;2933;52.302;8.134;2023-02-02T09:59:47;7.53;;;1.00;;
5813;SDS011;2933;52.302;8.134;2023-02-02T10:04:51;4.30;;;1.40;;
5813;SDS011;2933;52.302;8.134;2023-02-02T10:10:01;4.73;;;1.50;;
5813;SDS011;2933;52.302;8.134;2023-02-02T10:15:10;6.80;;;1.10;;
5813;SDS011;2933;52.302;8.134;2023-02-02T10:20:29;10.40;;;1.70;;
5813;SDS011;2933;52.302;8.134;2023-02-02T10:25:38;6.10;;;1.70;;
5813;SDS011;2933;52.302;8.134;2023-02-02T10:30:52;3.27;;;1.83;;
5813;SDS011;2933;52.302;8.134;2023-02-02T10:36:00;1.20;;;1.10;;
5813;SDS011;2933;52.302;8.134;2023-02-02T10:41:13;10.10;;;1.50;;
5813;SDS011;2933;52.302;8.134;2023-02-02T10:46:25;6.70;;;1.47;;
5813;SDS011;2933;52.302;8.134;2023-02-02T10:51:30;2.20;;;1.50;;
5813;SDS011;2933;52.302;8.134;2023-02-02T10:56:34;7.17;;;1.40;;
5813;SDS011;2933;52.302;8.134;2023-02-02T11:01:38;8.73;;;2.10;;
5813;SDS011;2933;52.302;8.134;2023-02-02T11:06:40;9.23;;;2.47;;
5813;SDS011;2933;52.302;8.134;2023-02-02T11:11:53;7.50;;;2.07;;
5813;SDS011;2933;52.302;8.134;2023-02-02T11:17:01;8.43;;;1.90;;
5813;SDS011;2933;52.302;8.134;2023-02-02T11:22:04;5.40;;;1.30;;
5813;SDS011;2933;52.302;8.134;2023-02-02T11:27:11;11.63;;;2.00;;
5813;SDS011;2933;52.302;8.134;2023-02-02T11:32:18;11.63;;;2.20;;
5813;SDS011;2933;52.302;8.134;2023-02-02T11:37:25;6.73;;;2.00;;
5813;SDS011;2933;52.302;8.134;2023-02-02T11:42:28;9.57;;;2.70;;
5813;SDS011;2933;52.302;8.134;2023-02-02T11:47:30;4.93;;;1.40;;
5813;SDS011;2933;52.302;8.134;2023-02-02T11:52:33;10.43;;;2.00;;
5813;SDS011;2933;52.302;8.134;2023-02-02T11:57:40;5.80;;;1.70;;
5813;SDS011;2933;52.302;8.134;2023-02-02T12:03:30;3.70;;;1.63;;
5813;SDS011;2933;52.302;8.134;2023-02-02T12:08:34;6.37;;;1.77;;
5813;SDS011;2933;52.302;8.134;2023-02-02T12:13:39;10.50;;;2.03;;
5813;SDS011;2933;52.302;8.134;2023-02-02T12:18:58;3.27;;;2.80;;
5813;SDS011;2933;52.302;8.134;2023-02-02T12:24:15;11.03;;;2.07;;
5813;SDS011;2933;52.302;8.134;2023-02-02T12:29:33;9.97;;;2.60;;
5813;SDS011;2933;52.302;8.134;2023-02-02T12:34:56;8.77;;;1.70;;
5813;SDS011;2933;52.302;8.134;2023-02-02T12:40:24;10.17;;;2.67;;
5813;SDS011;2933;52.302;8.134;2023-02-02T12:51:24;9.20;;;2.43;;
5813;SDS011;2933;52.302;8.134;2023-02-02T12:56:38;8.87;;;2.00;;
5813;SDS011;2933;52.302;8.134;2023-02-02T13:01:55;12.97;;;2.10;;
5813;SDS011;2933;52.302;8.134;2023-02-02T13:07:10;3.07;;;2.00;;
5813;SDS011;2933;52.302;8.134;2023-02-02T13:12:25;16.07;;;2.23;;
5813;SDS011;2933;52.302;8.134;2023-02-02T13:17:32;7.13;;;2.50;;
5813;SDS011;2933;52.302;8.134;2023-02-02T13:22:39;3.87;;;2.50;;
5813;SDS011;2933;52.302;8.134;2023-02-02T13:27:43;5.50;;;2.20;;
5813;SDS011;2933;52.302;8.134;2023-02-02T13:32:47;9.70;;;2.97;;
5813;SDS011;2933;52.302;8.134;2023-02-02T13:37:52;12.20;;;2.13;;
5813;SDS011;2933;52.302;8.134;2023-02-02T13:43:01;5.43;;;1.90;;
5813;SDS011;2933;52.302;8.134;2023-02-02T13:48:18;7.50;;;2.50;;
5813;SDS011;2933;52.302;8.134;2023-02-02T13:53:36;10.53;;;2.77;;
5813;SDS011;2933;52.302;8.134;2023-02-02T13:58:58;6.23;;;2.60;;
5813;SDS011;2933;52.302;8.134;2023-02-02T14:04:17;7.07;;;3.10;;
5813;SDS011;2933;52.302;8.134;2023-02-02T14:09:23;7.47;;;2.97;;
5813;SDS011;2933;52.302;8.134;2023-02-02T14:14:28;5.30;;;2.90;;
5813;SDS011;2933;52.302;8.134;2023-02-02T14:19:48;6.70;;;3.07;;
5813;SDS011;2933;52.302;8.134;2023-02-02T14:24:52;9.63;;;2.30;;
5813;SDS011;2933;52.302;8.134;2023-02-02T14:29:57;7.13;;;2.50;;
5813;SDS011;2933;52.302;8.134;2023-02-02T14:35:49;8.13;;;2.67;;
5813;SDS011;2933;52.302;8.134;2023-02-02T14:40:43;5.50;;;2.87;;
5813;SDS011;2933;52.302;8.134;2023-02-02T14:51:23;8.40;;;2.60;;
5813;SDS011;2933;52.302;8.134;2023-02-02T14:56:37;11.73;;;3.00;;
5813;SDS011;2933;52.302;8.134;2023-02-02T15:01:40;5.37;;;2.70;;
5813;SDS011;2933;52.302;8.134;2023-02-02T15:06:46;4.37;;;3.57;;
5813;SDS011;2933;52.302;8.134;2023-02-02T15:17:33;9.70;;;2.63;;
5813;SDS011;2933;52.302;8.134;2023-02-02T15:22:49;7.27;;;3.03;;
5813;SDS011;2933;52.302;8.134;2023-02-02T15:27:56;7.07;;;2.60;;
5813;SDS011;2933;52.302;8.134;2023-02-02T15:33:01;10.63;;;2.60;;
5813;SDS011;2933;52.302;8.134;2023-02-02T15:38:11;3.67;;;2.30;;
5813;SDS011;2933;52.302;8.134;2023-02-02T15:43:18;4.77;;;1.80;;
5813;SDS011;2933;52.302;8.134;2023-02-02T15:48:21;6.00;;;2.23;;
5813;SDS011;2933;52.302;8.134;2023-02-02T15:53:27;15.57;;;6.63;;
5813;SDS011;2933;52.302;8.134;2023-02-02T15:58:36;13.77;;;6.00;;
5813;SDS011;2933;52.302;8.134;2023-02-02T16:03:41;11.63;;;3.87;;
5813;SDS011;2933;52.302;8.134;2023-02-02T16:14:16;10.30;;;7.33;;
5813;SDS011;2933;52.302;8.134;2023-02-02T16:19:21;8.20;;;5.57;;
5813;SDS011;2933;52.302;8.134;2023-02-02T16:24:27;7.60;;;5.20;;
5813;SDS011;2933;52.302;8.134;2023-02-02T16:29:31;17.70;;;9.63;;
5813;SDS011;2933;52.302;8.134;2023-02-02T16:34:44;20.17;;;9.97;;
5813;SDS011;2933;52.302;8.134;2023-02-02T16:39:50;14.83;;;7.73;;
5813;SDS011;2933;52.302;8.134;2023-02-02T16:44:52;11.10;;;5.53;;
5813;SDS011;2933;52.302;8.134;2023-02-02T16:55:29;6.40;;;5.80;;
5813;SDS011;2933;52.302;8.134;2023-02-02T17:00:35;5.23;;;4.73;;
5813;SDS011;2933;52.302;8.134;2023-02-02T17:05:44;7.83;;;4.97;;
5813;SDS011;2933;52.302;8.134;2023-02-02T17:10:50;8.57;;;5.40;;
5813;SDS011;2933;52.302;8.134;2023-02-02T17:16:03;8.30;;;5.57;;
5813;SDS011;2933;52.302;8.134;2023-02-02T17:21:08;14.57;;;6.63;;
5813;SDS011;2933;52.302;8.134;2023-02-02T17:26:19;7.50;;;5.43;;
5813;SDS011;2933;52.302;8.134;2023-02-02T17:31:21;5.30;;;4.43;;
5813;SDS011;2933;52.302;8.134;2023-02-02T17:36:22;5.47;;;4.87;;
5813;SDS011;2933;52.302;8.134;2023-02-02T17:41:28;6.40;;;4.67;;
5813;SDS011;2933;52.302;8.134;2023-02-02T17:46:30;7.00;;;5.53;;
5813;SDS011;2933;52.302;8.134;2023-02-02T17:51:32;9.20;;;6.30;;
5813;SDS011;2933;52.302;8.134;2023-02-02T17:56:41;9.30;;;6.40;;
5813;SDS011;2933;52.302;8.134;2023-02-02T18:01:44;9.23;;;6.53;;
5813;SDS011;2933;52.302;8.134;2023-02-02T18:06:46;9.10;;;6.10;;
5813;SDS011;2933;52.302;8.134;2023-02-02T18:11:49;14.87;;;6.93;;
5813;SDS011;2933;52.302;8.134;2023-02-02T18:16:50;10.27;;;7.00;;
5813;SDS011;2933;52.302;8.134;2023-02-02T18:21:52;11.90;;;7.57;;
5813;SDS011;2933;52.302;8.134;2023-02-02T18:26:55;11.90;;;8.33;;
5813;SDS011;2933;52.302;8.134;2023-02-02T18:31:57;13.27;;;7.80;;
5813;SDS011;2933;52.302;8.134;2023-02-02T18:36:59;15.63;;;8.80;;
5813;SDS011;2933;52.302;8.134;2023-02-02T18:42:04;12.57;;;8.30;;
5813;SDS011;2933;52.302;8.134;2023-02-02T18:47:06;14.70;;;9.17;;
5813;SDS011;2933;52.302;8.134;2023-02-02T18:52:08;13.83;;;8.07;;
5813;SDS011;2933;52.302;8.134;2023-02-02T18:57:11;12.30;;;8.20;;
5813;SDS011;2933;52.302;8.134;2023-02-02T19:02:18;12.60;;;8.40;;
5813;SDS011;2933;52.302;8.134;2023-02-02T19:07:20;16.10;;;9.13;;
5813;SDS011;2933;52.302;8.134;2023-02-02T19:12:41;15.87;;;8.57;;
5813;SDS011;2933;52.302;8.134;2023-02-02T19:17:42;14.03;;;9.20;;
5813;SDS011;2933;52.302;8.134;2023-02-02T19:22:46;13.23;;;8.23;;
5813;SDS011;2933;52.302;8.134;2023-02-02T19:27:50;10.43;;;7.80;;
5813;SDS011;2933;52.302;8.134;2023-02-02T19:32:52;13.10;;;7.97;;
5813;SDS011;2933;52.302;8.134;2023-02-02T19:37:56;10.13;;;7.83;;
5813;SDS011;2933;52.302;8.134;2023-02-02T19:43:05;12.57;;;8.43;;
5813;SDS011;2933;52.302;8.134;2023-02-02T19:48:15;9.27;;;7.70;;
5813;SDS011;2933;52.302;8.134;2023-02-02T19:53:19;13.33;;;8.60;;
5813;SDS011;2933;52.302;8.134;2023-02-02T19:58:25;16.27;;;9.77;;
5813;SDS011;2933;52.302;8.134;2023-02-02T20:03:35;17.00;;;9.40;;
5813;SDS011;2933;52.302;8.134;2023-02-02T20:08:42;21.30;;;11.73;;
5813;SDS011;2933;52.302;8.134;2023-02-02T20:13:45;28.30;;;11.57;;
5813;SDS011;2933;52.302;8.134;2023-02-02T20:18:48;20.60;;;12.70;;
5813;SDS011;2933;52.302;8.134;2023-02-02T20:23:52;23.73;;;13.97;;
5813;SDS011;2933;52.302;8.134;2023-02-02T20:29:12;26.53;;;14.67;;
5813;SDS011;2933;52.302;8.134;2023-02-02T20:34:20;26.33;;;15.47;;
5813;SDS011;2933;52.302;8.134;2023-02-02T20:39:27;25.37;;;14.47;;
5813;SDS011;2933;52.302;8.134;2023-02-02T20:44:34;32.93;;;14.90;;
5813;SDS011;2933;52.302;8.134;2023-02-02T20:49:38;28.10;;;15.03;;
5813;SDS011;2933;52.302;8.134;2023-02-02T20:54:40;28.23;;;15.97;;
5813;SDS011;2933;52.302;8.134;2023-02-02T20:59:43;27.10;;;15.20;;
5813;SDS011;2933;52.302;8.134;2023-02-02T21:04:45;30.10;;;16.70;;
5813;SDS011;2933;52.302;8.134;2023-02-02T21:09:47;27.10;;;14.10;;
5813;SDS011;2933;52.302;8.134;2023-02-02T21:14:52;28.43;;;15.07;;
5813;SDS011;2933;52.302;8.134;2023-02-02T21:19:53;30.87;;;16.17;;
5813;SDS011;2933;52.302;8.134;2023-02-02T21:24:57;33.57;;;15.47;;
5813;SDS011;2933;52.302;8.134;2023-02-02T21:30:00;40.07;;;17.67;;
5813;SDS011;2933;52.302;8.134;2023-02-02T21:35:03;40.17;;;17.60;;
5813;SDS011;2933;52.302;8.134;2023-02-02T21:40:10;35.77;;;19.20;;
5813;SDS011;2933;52.302;8.134;2023-02-02T21:45:34;34.07;;;18.43;;
5813;SDS011;2933;52.302;8.134;2023-02-02T21:50:38;41.97;;;20.03;;
5813;SDS011;2933;52.302;8.134;2023-02-02T21:55:42;34.90;;;20.40;;
5813;SDS011;2933;52.302;8.134;2023-02-02T22:00:46;40.50;;;20.00;;
5813;SDS011;2933;52.302;8.134;2023-02-02T22:05:48;43.23;;;21.77;;
5813;SDS011;2933;52.302;8.134;2023-02-02T22:10:49;46.97;;;23.37;;
5813;SDS011;2933;52.302;8.134;2023-02-02T22:15:52;47.90;;;23.70;;
5813;SDS011;2933;52.302;8.134;2023-02-02T22:20:54;48.70;;;23.70;;
5813;SDS011;2933;52.302;8.134;2023-02-02T22:25:56;48.87;;;21.40;;
5813;SDS011;2933;52.302;8.134;2023-02-02T22:30:59;40.03;;;21.20;;
5813;SDS011;2933;52.302;8.134;2023-02-02T22:36:01;37.90;;;19.90;;
5813;SDS011;2933;52.302;8.134;2023-02-02T22:41:03;42.43;;;22.00;;
5813;SDS011;2933;52.302;8.134;2023-02-02T22:46:06;40.93;;;20.50;;
5813;SDS011;2933;52.302;8.134;2023-02-02T22:51:08;45.93;;;21.97;;
5813;SDS011;2933;52.302;8.134;2023-02-02T22:56:09;38.57;;;18.60;;
5813;SDS011;2933;52.302;8.134;2023-02-02T23:01:12;38.07;;;21.03;;
5813;SDS011;2933;52.302;8.134;2023-02-02T23:06:14;42.20;;;20.60;;
5813;SDS011;2933;52.302;8.134;2023-02-02T23:11:16;39.17;;;19.10;;
5813;SDS011;2933;52.302;8.134;2023-02-02T23:16:22;39.20;;;20.00;;
5813;SDS011;2933;52.302;8.134;2023-02-02T23:21:24;37.70;;;18.60;;
5813;SDS011;2933;52.302;8.134;2023-02-02T23:26:25;33.30;;;18.53;;
5813;SDS011;2933;52.302;8.134;2023-02-02T23:31:29;33.63;;;18.70;;
5813;SDS011;2933;52.302;8.134;2023-02-02T23:36:30;40.07;;;18.40;;
5813;SDS011;2933;52.302;8.134;2023-02-02T23:41:32;41.43;;;18.67;;
5813;SDS011;2933;52.302;8.134;2023-02-02T23:46:36;39.70;;;18.27;;
5813;SDS011;2933;52.302;8.134;2023-02-02T23:51:39;30.10;;;15.50;;
5813;SDS011;2933;52.302;8.134;2023-02-02T23:56:41;30.27;;;14.70;;
